createdAt,value
2022-11-22T00:02:19.507Z,7.95
2022-11-22T00:04:45.976Z,7.07
2022-11-22T00:07:12.365Z,6.75
2022-11-22T00:09:38.814Z,7.28
2022-11-22T00:12:05.448Z,6.78
2022-11-22T00:14:32.137Z,8.45
2022-11-22T00:16:58.466Z,8.88
2022-11-22T00:19:24.865Z,6.85
2022-11-22T00:21:51.228Z,10.07
2022-11-22T00:24:17.587Z,8.07
2022-11-22T00:26:43.949Z,5.82
2022-11-22T00:29:10.413Z,8.52
2022-11-22T00:31:36.757Z,11.02
2022-11-22T00:34:03.146Z,6.80
2022-11-22T00:36:29.550Z,6.43
2022-11-22T00:38:55.910Z,7.00
2022-11-22T00:41:22.382Z,6.53
2022-11-22T00:43:48.785Z,9.60
2022-11-22T00:46:15.141Z,7.93
2022-11-22T00:48:41.528Z,8.32
2022-11-22T00:51:07.949Z,5.82
2022-11-22T00:53:34.526Z,7.13
2022-11-22T00:56:02.690Z,5.15
2022-11-22T00:58:29.066Z,5.03
2022-11-22T01:00:56.908Z,6.45
2022-11-22T01:03:23.493Z,6.40
2022-11-22T01:05:49.829Z,6.88
2022-11-22T01:08:16.190Z,6.38
2022-11-22T01:10:42.629Z,7.30
2022-11-22T01:13:09.877Z,7.10
2022-11-22T01:15:36.615Z,9.00
2022-11-22T01:18:02.984Z,5.60
2022-11-22T01:20:30.744Z,8.30
2022-11-22T01:22:58.150Z,5.55
2022-11-22T01:25:24.526Z,8.55
2022-11-22T01:27:50.995Z,5.43
2022-11-22T01:30:17.861Z,5.88
2022-11-22T01:32:44.844Z,5.72
2022-11-22T01:35:11.661Z,5.57
2022-11-22T01:37:38.004Z,13.77
2022-11-22T01:40:04.668Z,8.95
2022-11-22T01:42:51.246Z,9.13
2022-11-22T01:45:29.771Z,9.27
2022-11-22T01:48:04.711Z,5.63
2022-11-22T01:50:33.331Z,7.63
2022-11-22T01:53:03.709Z,7.30
2022-11-22T01:55:30.358Z,6.57
2022-11-22T01:57:57.213Z,8.60
2022-11-22T02:00:23.778Z,7.65
2022-11-22T02:02:51.677Z,6.47
2022-11-22T02:05:19.348Z,10.02
2022-11-22T02:07:53.798Z,5.82
2022-11-22T02:10:23.374Z,8.88
2022-11-22T02:12:51.686Z,6.95
2022-11-22T02:15:18.122Z,7.82
2022-11-22T02:17:45.495Z,9.32
2022-11-22T02:20:12.338Z,8.43
2022-11-22T02:22:53.016Z,5.82
2022-11-22T02:25:37.596Z,6.28
2022-11-22T02:28:04.319Z,8.88
2022-11-22T02:30:30.749Z,7.10
2022-11-22T02:32:57.165Z,9.68
2022-11-22T02:35:27.280Z,8.02
2022-11-22T02:38:03.501Z,6.90
2022-11-22T02:40:34.537Z,7.82
2022-11-22T02:43:05.829Z,7.60
2022-11-22T02:45:32.178Z,8.35
2022-11-22T02:48:09.704Z,7.68
2022-11-22T02:50:36.383Z,6.65
2022-11-22T02:53:02.734Z,8.88
2022-11-22T02:55:29.115Z,7.78
2022-11-22T02:57:55.674Z,8.25
2022-11-22T03:00:22.410Z,8.93
2022-11-22T03:02:49.239Z,9.32
2022-11-22T03:05:15.781Z,7.40
2022-11-22T03:07:42.227Z,9.35
2022-11-22T03:10:08.978Z,10.60
2022-11-22T03:12:35.329Z,8.90
2022-11-22T03:15:01.973Z,12.50
2022-11-22T03:17:28.359Z,12.73
2022-11-22T03:19:54.702Z,9.95
2022-11-22T03:22:21.091Z,12.80
2022-11-22T03:24:47.445Z,14.30
2022-11-22T03:27:13.758Z,16.08
2022-11-22T03:29:40.204Z,13.32
2022-11-22T03:32:06.615Z,12.43
2022-11-22T03:34:32.946Z,14.00
2022-11-22T03:36:59.311Z,16.58
2022-11-22T03:39:25.681Z,18.55
2022-11-22T03:41:52.125Z,12.18
2022-11-22T03:44:18.509Z,21.15
2022-11-22T03:46:44.862Z,14.75
2022-11-22T03:49:11.950Z,19.27
2022-11-22T03:51:38.344Z,15.50
2022-11-22T03:54:04.796Z,21.50
2022-11-22T03:56:31.155Z,17.15
2022-11-22T03:58:57.513Z,14.95
2022-11-22T04:01:23.960Z,24.50
2022-11-22T04:03:50.426Z,17.27
2022-11-22T04:06:16.756Z,25.55
2022-11-22T04:08:43.169Z,19.17
2022-11-22T04:11:09.614Z,21.05
2022-11-22T04:13:54.853Z,24.40
2022-11-22T04:16:21.222Z,18.90
2022-11-22T04:18:47.538Z,20.08
2022-11-22T04:21:32.317Z,19.83
2022-11-22T04:24:17.077Z,22.27
2022-11-22T04:26:43.386Z,19.63
2022-11-22T04:29:10.607Z,19.83
2022-11-22T04:31:56.045Z,21.90
2022-11-22T04:34:22.429Z,20.95
2022-11-22T04:36:48.749Z,22.63
2022-11-22T04:39:15.131Z,20.38
2022-11-22T04:41:41.601Z,20.08
2022-11-22T04:44:27.971Z,18.45
2022-11-22T04:46:54.589Z,17.25
2022-11-22T04:49:20.936Z,19.20
2022-11-22T04:52:05.735Z,23.55
2022-11-22T04:54:32.088Z,19.58
2022-11-22T04:56:58.462Z,17.75
2022-11-22T04:59:24.873Z,18.20
2022-11-22T05:01:52.521Z,19.52
2022-11-22T05:04:18.895Z,20.33
2022-11-22T05:06:45.318Z,20.85
2022-11-22T05:09:11.642Z,23.65
2022-11-22T05:11:38.137Z,23.30
2022-11-22T05:14:04.464Z,21.92
2022-11-22T05:16:30.831Z,24.25
2022-11-22T05:18:59.843Z,19.83
2022-11-22T05:21:27.507Z,19.58
2022-11-22T05:23:56.564Z,20.92
2022-11-22T05:26:33.745Z,17.80
2022-11-22T05:29:05.371Z,20.38
2022-11-22T05:31:33.105Z,19.33
2022-11-22T05:33:59.958Z,18.05
2022-11-22T05:36:26.345Z,21.10
2022-11-22T05:38:53.127Z,17.80
2022-11-22T05:41:19.566Z,19.10
2022-11-22T05:43:46.083Z,20.80
2022-11-22T05:46:24.440Z,16.02
2022-11-22T05:48:52.295Z,20.42
2022-11-22T05:51:23.477Z,18.73
2022-11-22T05:53:49.928Z,17.83
2022-11-22T05:56:18.852Z,19.63
2022-11-22T05:58:45.772Z,22.88
2022-11-22T06:01:14.425Z,19.88
2022-11-22T06:03:41.235Z,19.40
2022-11-22T06:06:08.234Z,16.92
2022-11-22T06:08:38.206Z,17.15
2022-11-22T06:11:24.432Z,15.02
2022-11-22T06:13:53.330Z,17.27
2022-11-22T06:16:19.776Z,17.30
2022-11-22T06:18:46.658Z,17.13
2022-11-22T06:21:24.266Z,21.83
2022-11-22T06:23:54.522Z,13.88
2022-11-22T06:26:22.050Z,15.82
2022-11-22T06:28:49.245Z,19.42
2022-11-22T06:31:20.928Z,23.98
2022-11-22T06:33:47.402Z,17.55
2022-11-22T06:36:16.088Z,12.75
2022-11-22T06:38:43.522Z,16.45
2022-11-22T06:41:12.051Z,16.23
2022-11-22T06:43:43.788Z,16.33
2022-11-22T06:46:15.666Z,12.57
2022-11-22T06:48:42.507Z,12.80
2022-11-22T06:51:17.553Z,12.18
2022-11-22T06:53:48.863Z,10.85
2022-11-22T06:56:20.852Z,15.30
2022-11-22T06:58:48.357Z,14.20
2022-11-22T07:01:20.257Z,15.23
2022-11-22T07:03:47.396Z,10.65
2022-11-22T07:06:15.486Z,14.13
2022-11-22T07:08:42.067Z,15.50
2022-11-22T07:11:10.473Z,8.38
2022-11-22T07:13:37.287Z,14.30
2022-11-22T07:16:05.593Z,9.30
2022-11-22T07:18:32.411Z,13.63
2022-11-22T07:21:10.981Z,12.52
2022-11-22T07:23:40.177Z,12.07
2022-11-22T07:26:06.538Z,19.02
2022-11-22T07:28:32.913Z,17.85
2022-11-22T07:31:03.839Z,13.05
2022-11-22T07:33:30.281Z,16.38
2022-11-22T07:36:09.324Z,15.60
2022-11-22T07:38:36.373Z,18.10
2022-11-22T07:41:03.301Z,12.55
2022-11-22T07:43:29.696Z,20.83
2022-11-22T07:46:00.106Z,15.90
2022-11-22T07:48:26.473Z,18.60
2022-11-22T07:50:52.797Z,15.15
2022-11-22T07:53:19.283Z,15.07
2022-11-22T07:55:45.640Z,24.45
2022-11-22T07:58:12.072Z,12.35
2022-11-22T08:00:38.406Z,13.25
2022-11-22T08:03:04.769Z,25.10
2022-11-22T08:05:31.145Z,17.52
2022-11-22T08:07:57.509Z,21.73
2022-11-22T08:10:23.859Z,16.42
2022-11-22T08:12:50.296Z,15.20
2022-11-22T08:15:17.185Z,15.93
2022-11-22T08:17:43.561Z,14.00
2022-11-22T08:20:10.658Z,25.88
2022-11-22T08:22:40.818Z,23.75
2022-11-22T08:25:12.347Z,13.35
2022-11-22T08:27:42.773Z,18.52
2022-11-22T08:30:10.630Z,15.27
2022-11-22T08:32:37.325Z,19.05
2022-11-22T08:35:03.925Z,12.50
2022-11-22T08:37:30.321Z,14.32
2022-11-22T08:39:57.093Z,11.32
2022-11-22T08:42:23.656Z,15.52
2022-11-22T08:44:50.383Z,17.52
2022-11-22T08:47:17.086Z,15.35
2022-11-22T08:49:43.399Z,11.93
2022-11-22T08:52:09.790Z,12.98
2022-11-22T08:54:37.945Z,16.25
2022-11-22T08:57:04.668Z,10.95
2022-11-22T08:59:33.339Z,11.50
2022-11-22T09:02:00.328Z,18.05
2022-11-22T09:04:26.709Z,15.32
2022-11-22T09:09:39.663Z,10.95
2022-11-22T09:12:06.490Z,13.18
2022-11-22T09:14:32.818Z,11.18
2022-11-22T09:16:59.159Z,12.45
2022-11-22T09:19:25.556Z,9.05
2022-11-22T09:21:51.909Z,22.50
2022-11-22T09:24:18.275Z,15.43
2022-11-22T09:26:45.792Z,13.50
2022-11-22T09:29:12.203Z,12.23
2022-11-22T09:31:38.604Z,11.25
2022-11-22T09:34:04.969Z,10.65
2022-11-22T09:36:32.452Z,10.05
2022-11-22T09:38:59.419Z,10.05
2022-11-22T09:41:52.449Z,15.18
2022-11-22T09:44:31.071Z,10.32
2022-11-22T09:47:12.586Z,11.80
2022-11-22T09:49:50.709Z,10.02
2022-11-22T09:52:25.290Z,8.88
2022-11-22T09:54:57.888Z,7.32
2022-11-22T09:57:44.060Z,6.88
2022-11-22T10:00:20.794Z,9.60
2022-11-22T10:03:23.201Z,11.95
2022-11-22T10:05:51.641Z,10.40
2022-11-22T10:08:29.837Z,7.85
2022-11-22T10:10:57.508Z,9.95
2022-11-22T10:13:31.279Z,6.68
2022-11-22T10:16:03.997Z,8.13
2022-11-22T10:18:37.631Z,9.02
2022-11-22T10:21:04.352Z,10.23
2022-11-22T10:23:32.819Z,8.80
2022-11-22T10:26:02.934Z,9.68
2022-11-22T10:28:41.608Z,8.93
2022-11-22T10:31:16.136Z,9.52
2022-11-22T10:33:52.293Z,9.55
2022-11-22T10:36:38.943Z,9.20
2022-11-22T10:39:19.581Z,8.43
2022-11-22T10:42:23.394Z,12.82
2022-11-22T10:44:54.725Z,11.50
2022-11-22T10:47:54.946Z,8.75
2022-11-22T10:50:28.799Z,10.80
2022-11-22T10:53:03.584Z,10.20
2022-11-22T10:55:38.623Z,10.00
2022-11-22T10:58:16.890Z,16.38
2022-11-22T11:00:50.558Z,8.80
2022-11-22T11:03:30.574Z,6.60
2022-11-22T11:06:33.480Z,6.10
2022-11-22T11:12:13.332Z,11.55
2022-11-22T11:14:43.402Z,9.70
2022-11-22T11:17:16.790Z,9.23
2022-11-22T11:19:44.498Z,6.30
2022-11-22T11:22:42.670Z,8.32
2022-11-22T11:25:27.339Z,11.70
2022-11-22T11:27:53.909Z,7.68
2022-11-22T11:30:20.417Z,9.95
2022-11-22T11:32:55.589Z,7.93
2022-11-22T11:35:26.768Z,9.48
2022-11-22T11:37:53.317Z,8.77
2022-11-22T11:40:31.149Z,10.40
2022-11-22T11:43:20.014Z,10.90
2022-11-22T11:45:46.639Z,8.23
2022-11-22T11:48:30.935Z,13.90
2022-11-22T11:51:16.266Z,11.95
2022-11-22T11:53:50.765Z,9.20
2022-11-22T11:56:33.613Z,9.38
2022-11-22T11:59:03.038Z,11.65
2022-11-22T12:01:33.235Z,7.88
2022-11-22T12:04:04.183Z,13.38
2022-11-22T12:06:31.839Z,7.07
2022-11-22T12:08:59.005Z,9.75
2022-11-22T12:11:54.511Z,6.78
2022-11-22T12:14:24.297Z,10.73
2022-11-22T12:16:54.413Z,7.95
2022-11-22T12:19:24.828Z,8.98
2022-11-22T12:21:54.088Z,11.65
2022-11-22T12:24:48.816Z,8.35
2022-11-22T12:27:14.248Z,11.38
2022-11-22T12:29:42.128Z,5.15
2022-11-22T12:32:17.022Z,7.75
2022-11-22T12:34:46.312Z,8.93
2022-11-22T12:37:17.658Z,11.70
2022-11-22T12:39:47.256Z,10.40
2022-11-22T12:42:23.245Z,9.80
2022-11-22T12:44:54.357Z,7.60
2022-11-22T12:47:24.838Z,6.15
2022-11-22T12:49:58.116Z,14.05
2022-11-22T12:52:43.378Z,15.77
2022-11-22T12:55:17.853Z,7.90
2022-11-22T12:57:51.656Z,8.10
2022-11-22T13:00:21.944Z,10.88
2022-11-22T13:03:21.030Z,7.00
2022-11-22T13:05:49.993Z,9.95
2022-11-22T13:08:19.056Z,5.03
2022-11-22T13:10:49.254Z,7.32
2022-11-22T13:13:28.241Z,7.28
2022-11-22T13:15:56.003Z,9.15
2022-11-22T13:18:27.521Z,7.57
2022-11-22T13:21:20.837Z,5.47
2022-11-22T13:24:02.529Z,6.82
2022-11-22T13:27:06.512Z,11.82
2022-11-22T13:29:35.510Z,10.25
2022-11-22T13:32:01.773Z,10.30
2022-11-22T13:34:28.776Z,6.95
2022-11-22T13:37:08.361Z,7.38
2022-11-22T13:39:39.355Z,9.68
2022-11-22T13:42:06.452Z,7.00
2022-11-22T13:44:33.029Z,3.90
2022-11-22T13:47:04.703Z,7.38
2022-11-22T13:49:36.450Z,12.77
2022-11-22T13:52:09.379Z,9.77
2022-11-22T13:54:35.661Z,10.18
2022-11-22T13:57:20.752Z,7.95
2022-11-22T13:59:47.095Z,7.72
2022-11-22T14:02:22.344Z,7.22
2022-11-22T14:05:03.643Z,4.60
2022-11-22T14:07:35.438Z,8.60
2022-11-22T14:10:02.976Z,10.48
2022-11-22T14:12:37.402Z,7.38
2022-11-22T14:15:15.715Z,6.57
2022-11-22T14:18:06.820Z,6.60
2022-11-22T14:20:33.085Z,7.97
2022-11-22T14:23:12.933Z,6.40
2022-11-22T14:25:57.723Z,5.57
2022-11-22T14:28:45.172Z,3.90
2022-11-22T14:31:13.645Z,6.82
2022-11-22T14:34:18.527Z,8.57
2022-11-22T14:36:46.617Z,4.85
2022-11-22T14:39:55.896Z,5.90
2022-11-22T14:42:41.827Z,7.97
2022-11-22T14:45:11.245Z,7.50
2022-11-22T14:47:52.107Z,6.03
2022-11-22T14:50:48.137Z,7.15
2022-11-22T14:53:23.046Z,9.40
2022-11-22T14:55:51.118Z,8.32
2022-11-22T14:58:23.785Z,8.15
2022-11-22T15:01:23.331Z,8.35
2022-11-22T15:09:11.518Z,4.95
2022-11-22T15:09:15.364Z,4.70
2022-11-22T15:10:32.987Z,6.30
2022-11-22T15:13:37.858Z,7.72
2022-11-22T15:59:28.717Z,6.90
2022-11-22T16:01:57.876Z,6.18
2022-11-22T16:04:29.955Z,5.45
2022-11-22T16:06:59.109Z,4.03
2022-11-22T16:09:36.408Z,3.40
2022-11-22T16:12:06.013Z,3.10
2022-11-22T16:14:44.679Z,4.75
2022-11-22T16:17:26.396Z,5.60
2022-11-22T16:19:53.860Z,4.70
2022-11-22T16:22:31.009Z,3.63
2022-11-22T16:25:32.547Z,6.15
2022-11-22T16:28:01.379Z,6.45
2022-11-22T16:30:27.737Z,5.40
2022-11-22T16:32:56.349Z,11.90
2022-11-22T16:35:29.477Z,6.65
2022-11-22T16:37:56.281Z,2.53
2022-11-22T16:40:22.768Z,3.22
2022-11-22T16:42:49.281Z,2.50
2022-11-22T16:45:17.279Z,3.40
2022-11-22T16:47:44.778Z,4.00
2022-11-22T16:50:16.092Z,5.30
2022-11-22T16:52:44.567Z,3.22
2022-11-22T16:55:19.213Z,3.85
2022-11-22T16:57:45.966Z,4.35
2022-11-22T17:00:13.122Z,3.20
2022-11-22T17:02:39.953Z,5.60
2022-11-22T17:05:07.474Z,6.38
2022-11-22T17:07:34.425Z,4.65
2022-11-22T17:10:00.894Z,3.05
2022-11-22T17:12:33.262Z,4.60
2022-11-22T17:15:00.357Z,2.47
2022-11-22T17:17:26.778Z,3.53
2022-11-22T17:19:53.927Z,3.72
2022-11-22T17:22:20.575Z,4.18
2022-11-22T17:24:47.121Z,3.08
2022-11-22T17:27:14.023Z,4.95
2022-11-22T17:29:56.491Z,3.35
2022-11-22T17:32:22.852Z,2.60
2022-11-22T17:34:49.234Z,4.47
2022-11-22T17:37:15.617Z,4.53
2022-11-22T17:39:41.957Z,2.95
2022-11-22T17:42:08.378Z,6.50
2022-11-22T17:44:34.802Z,4.47
2022-11-22T17:47:01.199Z,3.15
2022-11-22T17:49:28.279Z,4.38
2022-11-22T17:51:55.022Z,3.10
2022-11-22T17:54:21.432Z,2.05
2022-11-22T17:56:47.802Z,4.57
2022-11-22T17:59:14.174Z,4.38
2022-11-22T18:01:40.536Z,4.50
2022-11-22T18:04:07.965Z,6.95
2022-11-22T18:06:34.292Z,2.85
2022-11-22T18:09:00.860Z,3.05
2022-11-22T18:11:27.299Z,4.35
2022-11-22T18:13:53.807Z,5.75
2022-11-22T18:16:20.884Z,1.95
2022-11-22T18:19:02.567Z,2.85
2022-11-22T18:21:30.854Z,4.05
2022-11-22T18:23:58.466Z,2.30
2022-11-22T18:26:41.590Z,3.80
2022-11-22T18:31:55.642Z,3.63
2022-11-22T18:34:22.663Z,2.45
2022-11-22T18:39:38.973Z,3.97
2022-11-22T18:42:07.147Z,4.38
2022-11-22T18:44:33.502Z,5.60
2022-11-22T18:46:59.940Z,3.33
2022-11-22T18:49:26.546Z,3.88
2022-11-22T18:51:52.949Z,5.03
2022-11-22T18:54:20.071Z,3.42
2022-11-22T18:56:46.440Z,6.18
2022-11-22T18:59:12.977Z,4.28
2022-11-22T19:01:40.022Z,7.53
2022-11-22T19:04:06.762Z,7.30
2022-11-22T19:06:33.143Z,10.05
2022-11-22T19:08:59.637Z,3.95
2022-11-22T19:11:26.064Z,3.80
2022-11-22T19:13:52.756Z,4.00
2022-11-22T19:16:21.756Z,6.43
2022-11-22T19:18:48.364Z,4.65
2022-11-22T19:21:25.963Z,4.47
2022-11-22T19:23:52.718Z,5.00
2022-11-22T19:26:21.354Z,5.32
2022-11-22T19:28:48.414Z,5.40
2022-11-22T19:31:19.809Z,5.68
2022-11-22T19:33:46.316Z,9.13
2022-11-22T19:36:14.821Z,9.95
2022-11-22T19:38:41.848Z,10.38
2022-11-22T19:41:09.628Z,4.30
2022-11-22T19:43:36.726Z,4.05
2022-11-22T19:46:03.874Z,7.07
2022-11-22T19:48:30.247Z,6.45
2022-11-22T19:50:57.007Z,4.70
2022-11-22T19:53:24.110Z,7.82
2022-11-22T19:55:50.498Z,5.20
2022-11-22T19:58:18.658Z,7.22
2022-11-22T20:00:45.090Z,6.28
2022-11-22T20:03:13.250Z,5.63
2022-11-22T20:05:41.423Z,8.98
2022-11-22T20:08:07.757Z,6.85
2022-11-22T20:10:35.004Z,5.10
2022-11-22T20:13:01.332Z,4.22
2022-11-22T20:15:27.768Z,7.18
2022-11-22T20:17:54.177Z,8.65
2022-11-22T20:20:20.558Z,8.38
2022-11-22T20:22:46.939Z,7.30
2022-11-22T20:25:13.309Z,8.75
2022-11-22T20:27:39.817Z,6.25
2022-11-22T20:30:06.637Z,8.82
2022-11-22T20:32:33.174Z,5.30
2022-11-22T20:34:59.556Z,4.18
2022-11-22T20:37:25.958Z,4.93
2022-11-22T20:39:52.349Z,5.63
2022-11-22T20:42:35.239Z,5.72
2022-11-22T20:45:03.369Z,7.80
2022-11-22T20:47:30.687Z,6.38
2022-11-22T20:49:57.075Z,5.38
2022-11-22T20:52:23.392Z,5.05
2022-11-22T20:54:49.737Z,5.35
2022-11-22T20:57:16.265Z,5.05
2022-11-22T20:59:42.731Z,10.05
2022-11-22T21:02:11.996Z,4.32
2022-11-22T21:04:38.344Z,6.35
2022-11-22T21:07:04.888Z,10.23
2022-11-22T21:09:31.577Z,8.68
2022-11-22T21:11:57.960Z,7.82
2022-11-22T21:14:24.425Z,8.43
2022-11-22T21:16:50.800Z,9.27
2022-11-22T21:19:17.770Z,8.82
2022-11-22T21:21:44.169Z,6.75
2022-11-22T21:24:11.934Z,5.78
2022-11-22T21:26:38.277Z,5.95
2022-11-22T21:29:12.901Z,7.78
2022-11-22T21:31:42.200Z,8.77
2022-11-22T21:34:08.776Z,8.77
2022-11-22T21:36:37.066Z,13.02
2022-11-22T21:39:03.524Z,14.98
2022-11-22T21:41:45.362Z,13.65
2022-11-22T21:44:11.987Z,10.85
2022-11-22T21:46:38.433Z,11.23
2022-11-22T21:49:05.101Z,14.13
2022-11-22T21:51:32.209Z,9.52
2022-11-22T21:53:59.897Z,11.43
2022-11-22T21:56:26.769Z,18.55
2022-11-22T21:58:53.276Z,12.07
2022-11-22T22:01:19.790Z,11.38
2022-11-22T22:03:46.316Z,9.73
2022-11-22T22:06:12.736Z,10.65
2022-11-22T22:08:40.727Z,8.65
2022-11-22T22:11:09.052Z,8.82
2022-11-22T22:13:35.567Z,12.43
2022-11-22T22:16:06.454Z,8.13
2022-11-22T22:18:37.189Z,11.38
2022-11-22T22:21:05.836Z,10.13
2022-11-22T22:23:33.600Z,7.95
2022-11-22T22:26:01.672Z,9.73
2022-11-22T22:28:32.125Z,8.88
2022-11-22T22:31:05.467Z,9.00
2022-11-22T22:33:32.341Z,11.40
2022-11-22T22:35:59.743Z,12.50
2022-11-22T22:38:26.518Z,9.15
2022-11-22T22:40:55.027Z,13.95
2022-11-22T22:43:25.094Z,13.10
2022-11-22T22:45:51.855Z,10.73
2022-11-22T22:48:18.968Z,12.98
2022-11-22T22:50:45.830Z,13.43
2022-11-22T22:53:12.885Z,10.88
2022-11-22T22:55:39.267Z,16.63
2022-11-22T22:58:05.853Z,13.02
2022-11-22T23:00:32.353Z,13.93
2022-11-22T23:02:59.103Z,11.82
2022-11-22T23:05:25.608Z,9.80
2022-11-22T23:07:52.204Z,8.85
2022-11-22T23:10:18.586Z,15.25
2022-11-22T23:12:45.082Z,12.18
2022-11-22T23:15:11.456Z,10.45
2022-11-22T23:17:37.880Z,9.07
2022-11-22T23:20:04.527Z,12.23
2022-11-22T23:22:30.912Z,10.15
2022-11-22T23:24:57.363Z,6.55
2022-11-22T23:27:23.728Z,11.82
2022-11-22T23:29:50.074Z,15.25
2022-11-22T23:32:16.642Z,10.55
2022-11-22T23:34:43.005Z,9.98
2022-11-22T23:37:09.368Z,13.68
2022-11-22T23:39:35.758Z,10.30
2022-11-22T23:42:02.140Z,7.13
2022-11-22T23:44:28.480Z,11.45
2022-11-22T23:46:55.045Z,8.15
2022-11-22T23:49:21.418Z,9.25
2022-11-22T23:51:50.363Z,9.80
2022-11-22T23:54:17.024Z,9.40
2022-11-22T23:56:43.403Z,6.00
2022-11-22T23:59:10.305Z,14.48
